KAOO

Altoona-Blair County Airport

Altoona, Pennsylvania, USA
METAR KAOO 162153Z AUTO 02005KT 10SM OVC007 03/02 A2990 RMK AO2 SLP136 T00280017
Observed Flight Rules
Dec-16 @ 21:53 UTC (10 minutes ago) Instrument Flight Rules
Wind Visibility Clouds
20° at 5 knots 10 miles
  • Overcast at 700' AGL
Temperatures Readings
Current 3°C / 37°F
Dewpoint 2°C / 36°F
Humidity 93%
Altimeter 29.9" Hg
Pressure 1013.6 hPa
Elevation 455
METAR KAOO 162153Z AUTO 02005KT 10SM OVC007 03/02 A2990 RMK AO2 SLP136 T00280017
Observed Flight Rules
Dec-16 @ 21:53 UTC
(10 minutes ago)
IFR
Wind Visibility
20° at 5 knots 10 miles
Clouds
  • Overcast at 700' AGL
Temperature Dewpoint
3°C / 37°F 2°C / 36°F
Humidity Altimeter Pressure
93% 29.9" Hg 1013.6 hPa